Terminal Aerodrome Forecast
Issued by NWS North Platte, NE

Home | Current Version | Previous Version | Text Only | Print | Product List | Glossary Off
Versions: 1 2 3 4 5 6 7 8 9 10 11 12 13 14 15 16 17 18 19

000
FTUS43 KLBF 302300
TAFVTN
TAF
KVTN 302324Z 0100/0124 26018G26KT P6SM SCT100 SCT150
     FM010100 26012KT P6SM BKN100
     FM010700 VRB05KT P6SM OVC100
     FM011400 32006KT P6SM OVC100=

USA.gov is the U.S. government's official web portal to all federal, state and local government web resources and services.